Time;durP1;ratioP1;P1;durP2;ratioP2;P2;SDS_P1;SDS_P2;PMS_P1;PMS_P2;Temp;Humidity;BMP_temperature;BMP_pressure;BME280_temperature;BME280_humidity;BME280_pressure;Samples;Min_cycle;Max_cycle;Signal;HPM_P1;HPM_P2
2023/08/06 00:00:39;;;;;;;4.20;3.90;;;19.40;59.60;;;;;;20743;6834;117103;-69
2023/08/06 00:03:04;;;;;;;3.55;3.35;;;19.10;60.30;;;;;;20754;6834;119806;-71
2023/08/06 00:05:30;;;;;;;3.72;3.42;;;18.90;61.00;;;;;;20742;6839;116939;-71
2023/08/06 00:07:55;;;;;;;3.23;3.13;;;18.70;61.40;;;;;;20743;6839;120134;-70
2023/08/06 00:10:21;;;;;;;3.75;3.55;;;18.60;61.80;;;;;;20528;6839;299430;-69
2023/08/06 00:12:48;;;;;;;3.80;3.50;;;18.80;61.00;;;;;;20738;6835;117150;-71
2023/08/06 00:15:13;;;;;;;3.50;3.30;;;18.80;60.90;;;;;;20738;6835;119055;-70
2023/08/06 00:17:38;;;;;;;3.53;3.33;;;18.70;61.20;;;;;;20757;6835;117462;-71
2023/08/06 00:20:05;;;;;;;4.40;4.10;;;18.50;61.60;;;;;;20544;6835;276851;-70
2023/08/06 00:22:33;;;;;;;4.20;3.33;;;18.70;60.30;;;;;;20736;6839;120207;-70
2023/08/06 00:24:59;;;;;;;4.12;3.90;;;18.70;60.50;;;;;;20532;6839;304069;-69
2023/08/06 00:27:24;;;;;;;5.53;3.60;;;18.90;60.20;;;;;;20742;6839;121903;-71
2023/08/06 00:29:51;;;;;;;3.70;3.50;;;18.60;60.90;;;;;;20693;6854;117249;-70
2023/08/06 00:32:16;;;;;;;4.30;4.00;;;18.60;60.80;;;;;;20513;6839;336722;-70
2023/08/06 00:34:42;;;;;;;4.60;4.30;;;19.10;60.10;;;;;;20450;6854;338624;-70
2023/08/06 00:37:08;;;;;;;4.50;4.20;;;19.10;60.10;;;;;;20520;6839;277951;-68
2023/08/06 00:39:34;;;;;;;4.23;3.93;;;19.40;59.70;;;;;;20519;6838;277998;-69
2023/08/06 00:41:59;;;;;;;4.12;3.90;;;19.70;58.70;;;;;;20525;6839;307127;-70
2023/08/06 00:44:25;;;;;;;3.50;3.30;;;19.80;57.80;;;;;;20534;6839;278664;-70
2023/08/06 00:46:50;;;;;;;3.60;3.40;;;19.90;57.00;;;;;;20474;6854;329123;-68
2023/08/06 00:49:16;;;;;;;3.28;3.00;;;20.10;56.60;;;;;;20753;6839;121091;-70
2023/08/06 00:51:41;;;;;;;4.35;3.40;;;19.80;57.20;;;;;;20542;6834;307315;-70
2023/08/06 00:54:07;;;;;;;4.00;3.00;;;19.70;57.00;;;;;;20694;6854;120323;-69
2023/08/06 00:56:35;;;;;;;3.30;3.20;;;19.40;57.50;;;;;;20718;6839;122930;-69
2023/08/06 00:59:00;;;;;;;3.62;3.33;;;19.00;58.30;;;;;;20515;6839;307008;-70
2023/08/06 01:01:25;;;;;;;2.95;2.85;;;19.00;57.80;;;;;;20748;6834;119133;-68
2023/08/06 01:03:52;;;;;;;3.58;3.35;;;19.00;58.00;;;;;;20520;6839;309546;-69
2023/08/06 01:06:17;;;;;;;3.07;2.97;;;19.00;58.10;;;;;;20720;6839;117939;-68
2023/08/06 01:08:59;;;;;;;3.53;3.23;;;18.80;58.30;;;;;;20709;6834;119103;-70
2023/08/06 01:11:32;;;;;;;3.07;2.87;;;18.60;59.10;;;;;;20714;6839;119317;-69
2023/08/06 01:14:00;;;;;;;3.77;3.20;;;18.30;59.70;;;;;;20492;6839;311778;-69
2023/08/06 01:16:26;;;;;;;3.33;3.13;;;18.40;58.90;;;;;;20489;6837;277913;-70
2023/08/06 01:18:51;;;;;;;3.95;3.30;;;18.80;57.90;;;;;;20509;6837;278228;-71
2023/08/06 01:21:17;;;;;;;3.42;3.17;;;19.00;57.50;;;;;;20503;6839;308346;-71
2023/08/06 01:23:43;;;;;;;3.35;3.03;;;19.20;56.90;;;;;;20736;6835;119159;-71
2023/08/06 01:26:08;;;;;;;3.70;3.40;;;19.00;57.90;;;;;;20531;6835;277273;-69
2023/08/06 01:28:37;;;;;;;4.07;3.67;;;18.90;57.50;;;;;;20507;6835;277954;-71
2023/08/06 01:31:03;;;;;;;5.83;3.67;;;19.10;57.30;;;;;;20509;6835;306976;-71
2023/08/06 01:33:28;;;;;;;3.60;3.30;;;19.20;56.90;;;;;;20504;6839;307473;-71
2023/08/06 01:35:54;;;;;;;4.03;3.62;;;19.30;56.60;;;;;;20522;6835;332358;-71
2023/08/06 01:38:19;;;;;;;3.70;3.40;;;19.30;56.60;;;;;;20723;6839;119786;-71
2023/08/06 01:40:45;;;;;;;3.75;3.50;;;19.00;57.30;;;;;;20518;6835;312721;-69
2023/08/06 01:43:10;;;;;;;3.37;2.97;;;18.90;57.80;;;;;;20724;6839;122293;-71
2023/08/06 01:45:36;;;;;;;3.27;3.07;;;18.70;58.30;;;;;;20507;6839;305230;-70
2023/08/06 01:48:02;;;;;;;4.32;3.70;;;18.70;57.20;;;;;;20732;6839;121086;-70
2023/08/06 01:50:27;;;;;;;4.60;3.20;;;18.50;57.60;;;;;;20522;6833;306819;-70
2023/08/06 01:52:53;;;;;;;3.08;2.90;;;18.50;57.60;;;;;;20716;6839;119826;-70
2023/08/06 01:55:18;;;;;;;3.13;2.93;;;18.30;58.00;;;;;;20724;6839;117136;-69
2023/08/06 01:57:45;;;;;;;3.92;2.90;;;17.80;59.30;;;;;;20678;6854;117645;-70
2023/08/06 02:00:11;;;;;;;6.93;3.10;;;17.70;59.20;;;;;;20726;6839;117171;-71
2023/08/06 02:02:36;;;;;;;4.63;2.50;;;17.50;59.80;;;;;;20715;6839;119101;-71
2023/08/06 02:05:02;;;;;;;2.37;2.27;;;17.30;60.20;;;;;;20692;6854;117442;-70
2023/08/06 02:07:27;;;;;;;3.53;2.73;;;17.20;60.60;;;;;;20734;6839;116136;-70
2023/08/06 02:09:53;;;;;;;3.78;3.20;;;17.20;61.00;;;;;;20468;6854;307945;-71
2023/08/06 02:12:19;;;;;;;3.30;3.10;;;17.40;60.30;;;;;;20518;6839;311949;-70
2023/08/06 02:14:44;;;;;;;3.50;3.20;;;17.80;59.60;;;;;;20493;6839;336764;-70
2023/08/06 02:17:10;;;;;;;3.33;3.10;;;18.10;58.60;;;;;;20522;6839;308739;-71
2023/08/06 02:19:35;;;;;;;2.70;2.60;;;18.30;57.80;;;;;;20731;6839;117609;-71
2023/08/06 02:22:02;;;;;;;2.53;2.33;;;18.20;58.20;;;;;;20737;6839;118147;-70
2023/08/06 02:24:28;;;;;;;3.22;3.03;;;17.80;58.80;;;;;;20529;6839;278037;-71
2023/08/06 02:26:55;;;;;;;3.07;2.80;;;17.90;58.40;;;;;;20456;6854;316483;-71
2023/08/06 02:29:19;;;;;;;3.12;2.92;;;18.10;57.60;;;;;;20732;6839;120269;-70
2023/08/06 02:31:45;;;;;;;3.50;3.17;;;18.00;58.10;;;;;;20510;6839;301318;-71
2023/08/06 02:34:10;;;;;;;3.03;2.70;;;18.00;57.50;;;;;;20522;6839;289954;-71
2023/08/06 02:36:36;;;;;;;2.90;2.70;;;18.20;57.00;;;;;;20498;6839;306900;-69
2023/08/06 02:39:02;;;;;;;2.70;2.50;;;18.10;56.90;;;;;;20725;6839;117617;-69
2023/08/06 02:41:28;;;;;;;2.60;2.40;;;18.10;56.80;;;;;;20521;6835;340571;-70
2023/08/06 02:43:53;;;;;;;3.55;2.87;;;18.00;56.20;;;;;;20506;6839;337088;-70
2023/08/06 02:46:19;;;;;;;3.30;2.40;;;18.20;55.80;;;;;;20743;6835;117524;-69
2023/08/06 02:48:44;;;;;;;4.10;2.60;;;18.00;56.50;;;;;;20496;6839;278100;-71
2023/08/06 02:51:10;;;;;;;3.50;2.40;;;18.00;56.20;;;;;;20683;6854;123711;-70
2023/08/06 02:53:36;;;;;;;2.22;2.10;;;17.50;57.70;;;;;;20726;6839;117023;-70
2023/08/06 02:56:02;;;;;;;2.50;2.37;;;17.50;57.70;;;;;;20735;6835;120110;-71
2023/08/06 02:58:27;;;;;;;3.00;2.55;;;17.20;58.30;;;;;;20516;6839;278572;-71
2023/08/06 03:01:03;;;;;;;2.58;2.35;;;17.40;57.50;;;;;;20512;6835;280647;-70
2023/08/06 03:03:29;;;;;;;2.43;2.30;;;17.70;57.00;;;;;;20719;6838;116907;-71
2023/08/06 03:05:55;;;;;;;2.83;2.30;;;17.70;57.00;;;;;;20738;6834;117503;-70
2023/08/06 03:08:24;;;;;;;2.97;2.77;;;17.40;57.60;;;;;;20508;6839;337036;-69
2023/08/06 03:10:49;;;;;;;3.87;2.80;;;17.60;57.70;;;;;;20502;6839;307976;-70
2023/08/06 03:13:15;;;;;;;2.55;2.28;;;17.90;56.90;;;;;;20732;6839;119935;-70
2023/08/06 03:15:40;;;;;;;3.63;2.73;;;17.80;57.20;;;;;;20475;6854;308936;-71
2023/08/06 03:18:06;;;;;;;5.03;2.92;;;17.90;57.00;;;;;;20517;6839;296262;-70
2023/08/06 03:20:31;;;;;;;4.27;2.80;;;18.10;56.50;;;;;;20497;6839;307511;-70
2023/08/06 03:22:58;;;;;;;3.00;2.80;;;18.40;56.00;;;;;;20533;6834;307404;-70
2023/08/06 03:25:23;;;;;;;3.50;2.67;;;18.40;56.00;;;;;;20737;6834;117079;-70
2023/08/06 03:27:49;;;;;;;3.33;2.55;;;18.20;56.70;;;;;;20747;6834;116956;-71
2023/08/06 03:30:15;;;;;;;2.80;2.40;;;17.80;57.50;;;;;;20728;6839;117542;-70
2023/08/06 03:32:40;;;;;;;2.90;2.67;;;17.50;58.30;;;;;;20500;6839;278118;-70
2023/08/06 03:35:06;;;;;;;3.12;2.70;;;17.60;57.50;;;;;;20522;6839;283747;-70
2023/08/06 03:37:31;;;;;;;2.63;2.20;;;17.90;56.70;;;;;;20680;6854;121551;-71
2023/08/06 03:39:57;;;;;;;2.40;2.20;;;17.90;57.30;;;;;;20728;6839;118985;-70
2023/08/06 03:42:23;;;;;;;2.40;2.20;;;17.60;58.00;;;;;;20518;6839;339627;-70
2023/08/06 03:44:48;;;;;;;3.37;2.37;;;17.70;57.20;;;;;;20497;6839;278513;-69
2023/08/06 03:47:14;;;;;;;2.23;2.10;;;18.00;56.30;;;;;;20518;6839;337805;-69
2023/08/06 03:49:39;;;;;;;2.10;1.90;;;18.30;55.80;;;;;;20743;6835;117080;-71
2023/08/06 03:52:05;;;;;;;2.50;2.30;;;18.10;56.40;;;;;;20521;6839;307992;-70
2023/08/06 03:54:31;;;;;;;1.80;1.70;;;18.10;55.90;;;;;;20716;6839;117168;-69
2023/08/06 03:56:56;;;;;;;2.70;2.12;;;18.00;56.60;;;;;;20531;6835;336518;-71
2023/08/06 03:59:22;;;;;;;4.35;2.03;;;18.00;56.20;;;;;;20749;6835;117743;-71
2023/08/06 04:01:48;;;;;;;2.03;1.93;;;17.70;57.50;;;;;;20736;6839;117201;-70
2023/08/06 04:04:14;;;;;;;2.60;2.30;;;17.70;57.50;;;;;;20543;6835;282844;-70
2023/08/06 04:06:39;;;;;;;2.20;2.10;;;17.80;57.20;;;;;;20517;6835;288141;-69
2023/08/06 04:09:05;;;;;;;2.42;2.22;;;18.10;56.90;;;;;;20735;6839;117316;-71
2023/08/06 04:11:30;;;;;;;2.73;2.30;;;18.00;57.40;;;;;;20526;6839;278404;-71
2023/08/06 04:13:56;;;;;;;3.87;2.60;;;18.00;57.70;;;;;;20512;6837;294078;-71
2023/08/06 04:16:21;;;;;;;2.53;2.00;;;18.20;57.10;;;;;;20689;6854;117228;-71
2023/08/06 04:18:47;;;;;;;2.77;2.27;;;18.10;57.60;;;;;;20501;6839;308739;-71
2023/08/06 04:21:13;;;;;;;2.15;1.95;;;18.10;57.70;;;;;;20520;6839;307134;-70
2023/08/06 04:23:38;;;;;;;2.03;1.90;;;18.30;57.20;;;;;;20519;6839;308999;-69
2023/08/06 04:26:05;;;;;;;3.30;2.10;;;18.30;57.50;;;;;;20724;6839;117102;-70
2023/08/06 04:28:30;;;;;;;3.07;1.87;;;18.30;57.50;;;;;;20531;6834;307067;-69
2023/08/06 04:30:56;;;;;;;1.50;1.40;;;18.00;58.00;;;;;;20700;6839;121337;-70
2023/08/06 04:33:22;;;;;;;1.63;1.53;;;18.00;58.00;;;;;;20748;6834;119222;-70
2023/08/06 04:35:48;;;;;;;3.87;1.90;;;17.80;58.90;;;;;;20515;6839;309123;-70
2023/08/06 04:38:15;;;;;;;2.58;1.80;;;18.10;58.10;;;;;;20509;6834;338630;-69
2023/08/06 04:40:40;;;;;;;2.07;1.23;;;18.10;58.10;;;;;;20714;6839;118042;-71
2023/08/06 04:43:06;;;;;;;2.70;1.60;;;18.00;58.40;;;;;;20524;6834;326361;-71
2023/08/06 04:45:32;;;;;;;2.15;1.17;;;17.80;58.70;;;;;;20749;6834;119248;-71
2023/08/06 04:47:58;;;;;;;3.10;1.13;;;17.80;58.70;;;;;;20733;6839;117143;-71
2023/08/06 04:50:23;;;;;;;1.53;1.10;;;17.60;59.60;;;;;;20689;6854;119563;-69
2023/08/06 04:52:49;;;;;;;3.27;1.47;;;17.20;60.80;;;;;;20713;6839;121703;-70
2023/08/06 04:55:15;;;;;;;2.65;1.58;;;17.20;60.80;;;;;;20519;6839;312287;-70
2023/08/06 04:57:41;;;;;;;2.05;1.50;;;17.40;61.20;;;;;;20536;6835;336939;-70
2023/08/06 05:00:08;;;;;;;2.20;1.43;;;17.70;59.60;;;;;;20531;6835;281387;-69
2023/08/06 05:02:37;;;;;;;1.77;1.50;;;18.00;59.00;;;;;;20515;6835;277901;-70
2023/08/06 05:05:00;;;;;;;2.37;1.27;;;18.30;58.30;;;;;;20720;6839;118238;-69
2023/08/06 05:07:26;;;;;;;2.20;1.60;;;18.00;58.40;;;;;;20526;6835;311617;-68
2023/08/06 05:09:52;;;;;;;1.48;1.33;;;18.00;58.10;;;;;;20539;6835;278374;-70
2023/08/06 05:12:17;;;;;;;2.62;1.52;;;18.20;57.50;;;;;;20526;6835;341088;-70
2023/08/06 05:14:43;;;;;;;2.15;1.30;;;18.30;56.70;;;;;;20496;6839;307963;-70
2023/08/06 05:17:08;;;;;;;1.93;1.40;;;18.40;56.20;;;;;;20679;6854;117506;-69
2023/08/06 05:19:34;;;;;;;2.35;1.40;;;18.20;57.10;;;;;;20526;6839;278026;-69
2023/08/06 05:22:00;;;;;;;1.90;1.35;;;18.20;57.30;;;;;;20522;6839;278127;-70
2023/08/06 05:24:25;;;;;;;1.70;1.20;;;18.40;57.20;;;;;;20511;6839;312176;-69
2023/08/06 05:26:51;;;;;;;3.28;1.25;;;18.60;56.60;;;;;;20457;6853;309397;-70
2023/08/06 05:29:16;;;;;;;1.90;1.30;;;18.80;55.90;;;;;;20727;6839;117354;-69
2023/08/06 05:31:42;;;;;;;2.33;1.20;;;18.50;56.30;;;;;;20520;6839;310849;-70
2023/08/06 05:34:07;;;;;;;2.37;1.10;;;18.50;56.00;;;;;;20478;6854;278973;-69
2023/08/06 05:36:33;;;;;;;1.75;1.10;;;18.60;56.00;;;;;;20663;6854;124117;-69
2023/08/06 05:38:59;;;;;;;0.98;0.98;;;18.40;56.70;;;;;;20731;6839;122693;-70
2023/08/06 05:41:24;;;;;;;1.75;1.02;;;18.00;58.30;;;;;;20521;6839;278266;-70
2023/08/06 05:43:50;;;;;;;3.55;1.30;;;18.20;57.80;;;;;;20536;6834;308932;-69
2023/08/06 05:46:15;;;;;;;2.00;1.13;;;18.50;56.60;;;;;;20751;6834;119222;-69
2023/08/06 05:48:41;;;;;;;1.98;1.00;;;18.50;56.80;;;;;;20510;6834;307953;-69
2023/08/06 05:51:07;;;;;;;1.80;1.10;;;18.50;56.50;;;;;;20745;6834;119815;-69
2023/08/06 05:53:33;;;;;;;2.10;0.90;;;18.50;56.50;;;;;;20736;6834;117063;-69
2023/08/06 05:55:58;;;;;;;0.90;0.75;;;18.30;57.40;;;;;;20538;6834;277730;-70
2023/08/06 05:58:28;;;;;;;2.10;0.93;;;18.80;55.80;;;;;;20511;6839;308530;-69
2023/08/06 06:00:50;;;;;;;1.67;0.93;;;18.80;55.70;;;;;;20701;6839;118309;-69
2023/08/06 06:03:16;;;;;;;2.80;0.90;;;18.80;56.20;;;;;;20741;6835;117209;-70
2023/08/06 06:05:41;;;;;;;1.53;0.80;;;18.50;56.70;;;;;;20725;6839;117187;-69
2023/08/06 06:08:07;;;;;;;1.52;1.10;;;18.30;57.20;;;;;;20748;6835;121600;-70
2023/08/06 06:10:32;;;;;;;0.57;0.53;;;18.10;57.70;;;;;;20714;6839;119836;-70
2023/08/06 06:12:58;;;;;;;1.27;0.98;;;17.90;58.20;;;;;;20514;6839;338304;-69
2023/08/06 06:15:24;;;;;;;3.40;1.10;;;18.10;58.00;;;;;;20472;6854;283479;-70
2023/08/06 06:17:49;;;;;;;1.80;1.08;;;18.50;57.50;;;;;;20512;6839;336648;-68
2023/08/06 06:20:15;;;;;;;1.80;1.17;;;18.80;57.10;;;;;;20726;6839;117728;-69
2023/08/06 06:22:40;;;;;;;1.90;1.10;;;18.80;57.60;;;;;;20713;6839;121213;-70
2023/08/06 06:25:06;;;;;;;0.87;0.57;;;18.60;58.20;;;;;;20728;6839;119966;-70
2023/08/06 06:27:32;;;;;;;0.93;0.90;;;18.50;58.70;;;;;;20504;6839;309266;-69
2023/08/06 06:29:57;;;;;;;1.50;0.82;;;18.80;58.00;;;;;;20530;6835;306359;-70
2023/08/06 06:32:23;;;;;;;1.67;0.80;;;19.20;57.30;;;;;;20537;6835;335782;-70
2023/08/06 06:34:48;;;;;;;1.27;0.88;;;19.50;55.80;;;;;;20501;6839;306900;-70
2023/08/06 06:37:14;;;;;;;1.67;0.88;;;19.70;54.90;;;;;;20545;6833;330842;-69
2023/08/06 06:39:40;;;;;;;1.70;0.80;;;19.80;54.50;;;;;;20525;6839;279080;-70
2023/08/06 06:42:05;;;;;;;1.47;0.67;;;19.90;54.30;;;;;;20693;6854;117548;-69
2023/08/06 06:44:31;;;;;;;0.70;0.53;;;19.60;54.80;;;;;;20729;6839;119213;-68
2023/08/06 06:46:56;;;;;;;1.10;0.80;;;19.20;55.80;;;;;;20717;6839;119416;-70
2023/08/06 06:49:22;;;;;;;0.75;0.62;;;18.90;56.50;;;;;;20736;6839;117221;-70
2023/08/06 06:51:47;;;;;;;1.10;0.80;;;18.60;57.10;;;;;;20518;6839;277460;-69
2023/08/06 06:54:13;;;;;;;2.93;0.77;;;18.80;56.40;;;;;;20736;6839;120471;-69
2023/08/06 06:56:39;;;;;;;4.07;0.83;;;18.80;56.80;;;;;;20712;6839;117658;-70
2023/08/06 06:59:05;;;;;;;1.70;0.70;;;18.40;57.80;;;;;;20727;6839;117692;-69
2023/08/06 07:01:30;;;;;;;0.70;0.67;;;18.40;57.80;;;;;;20518;6839;312549;-69
2023/08/06 07:03:57;;;;;;;0.50;0.50;;;18.50;57.20;;;;;;20728;6839;118047;-70
2023/08/06 07:06:22;;;;;;;0.87;0.60;;;18.50;57.20;;;;;;20687;6854;117620;-69
2023/08/06 07:08:48;;;;;;;1.20;0.70;;;18.50;58.10;;;;;;20499;6839;309430;-70
2023/08/06 07:11:13;;;;;;;1.17;0.77;;;18.80;57.80;;;;;;20523;6839;281058;-68
2023/08/06 07:13:39;;;;;;;1.23;0.70;;;19.30;57.40;;;;;;20726;6839;118050;-68
2023/08/06 07:16:05;;;;;;;2.87;1.10;;;19.30;57.30;;;;;;20738;6837;119643;-70
2023/08/06 07:18:30;;;;;;;1.12;0.77;;;19.20;57.60;;;;;;20518;6839;307561;-69
2023/08/06 07:20:56;;;;;;;2.08;0.57;;;19.30;57.10;;;;;;20728;6835;120040;-69
2023/08/06 07:23:21;;;;;;;1.40;0.53;;;19.40;57.40;;;;;;20692;6854;117155;-70
2023/08/06 07:25:48;;;;;;;0.47;0.40;;;19.00;57.60;;;;;;20732;6839;118105;-71
2023/08/06 07:28:13;;;;;;;1.07;0.60;;;19.10;57.70;;;;;;20733;6839;119409;-71
2023/08/06 07:30:39;;;;;;;0.97;0.70;;;18.90;57.80;;;;;;20516;6835;282243;-70
2023/08/06 07:33:04;;;;;;;1.20;0.50;;;19.00;56.50;;;;;;20727;6839;119915;-70
2023/08/06 07:35:30;;;;;;;1.00;0.70;;;19.00;56.90;;;;;;20533;6835;307305;-71
2023/08/06 07:37:55;;;;;;;0.90;0.50;;;19.10;57.20;;;;;;20517;6839;337046;-71
2023/08/06 07:40:22;;;;;;;1.35;0.50;;;19.50;55.80;;;;;;20524;6837;307250;-70
2023/08/06 07:42:47;;;;;;;0.60;0.37;;;19.50;55.70;;;;;;20710;6839;119358;-69
2023/08/06 07:45:14;;;;;;;0.47;0.47;;;19.10;56.90;;;;;;20725;6839;120008;-68
2023/08/06 07:47:39;;;;;;;0.60;0.60;;;19.00;56.80;;;;;;20743;6835;119731;-69
2023/08/06 07:50:05;;;;;;;1.15;0.50;;;18.80;57.60;;;;;;20516;6837;308332;-69
2023/08/06 07:52:30;;;;;;;0.50;0.50;;;18.90;57.50;;;;;;20700;6854;119249;-70
2023/08/06 07:54:56;;;;;;;0.50;0.30;;;18.90;57.70;;;;;;20743;6839;117285;-70
2023/08/06 07:57:22;;;;;;;1.50;0.37;;;18.70;57.90;;;;;;20778;6839;122000;-68
2023/08/06 07:59:47;;;;;;;1.33;0.50;;;18.50;58.30;;;;;;20574;6839;290821;-69
2023/08/06 08:02:13;;;;;;;0.40;0.40;;;18.60;57.40;;;;;;20748;6839;116231;-70
2023/08/06 08:04:38;;;;;;;0.27;0.27;;;18.60;57.60;;;;;;20723;6839;119200;-70
2023/08/06 08:07:04;;;;;;;2.15;0.40;;;18.50;58.30;;;;;;20743;6839;119419;-69
2023/08/06 08:09:30;;;;;;;0.53;0.30;;;18.30;58.60;;;;;;20468;6854;307661;-69
2023/08/06 08:11:55;;;;;;;0.40;0.30;;;18.50;58.00;;;;;;20739;6839;119310;-70
2023/08/06 08:14:21;;;;;;;0.80;0.50;;;18.60;58.20;;;;;;20524;6839;309792;-70
2023/08/06 08:16:46;;;;;;;0.60;0.30;;;18.80;57.60;;;;;;20716;6839;119836;-69
2023/08/06 08:19:12;;;;;;;1.17;0.40;;;18.80;58.00;;;;;;20483;6854;280535;-70
2023/08/06 08:21:37;;;;;;;0.77;0.40;;;19.00;58.00;;;;;;20727;6839;117232;-70
2023/08/06 08:24:03;;;;;;;0.45;0.30;;;19.10;58.20;;;;;;20522;6839;306614;-69
2023/08/06 08:26:29;;;;;;;0.30;0.30;;;19.30;57.20;;;;;;20723;6839;117234;-69
2023/08/06 08:28:54;;;;;;;1.00;0.33;;;19.30;57.50;;;;;;20673;6854;123170;-70
2023/08/06 08:31:20;;;;;;;0.07;0.07;;;19.10;57.60;;;;;;20736;6839;117140;-69
2023/08/06 08:33:45;;;;;;;0.35;0.20;;;18.90;57.90;;;;;;20534;6835;312304;-70
2023/08/06 08:36:11;;;;;;;0.20;0.20;;;19.10;57.80;;;;;;20733;6839;117224;-70
2023/08/06 08:38:36;;;;;;;1.00;0.20;;;19.10;57.90;;;;;;20522;6835;282937;-69
2023/08/06 08:41:03;;;;;;;0.20;0.20;;;19.20;57.70;;;;;;20736;6839;117370;-70
2023/08/06 08:43:28;;;;;;;0.20;0.10;;;19.10;57.50;;;;;;20688;6854;117369;-70
2023/08/06 08:46:00;;;;;;;0.43;0.10;;;19.10;58.20;;;;;;20680;6854;117278;-70
2023/08/06 08:48:27;;;;;;;0.90;0.10;;;18.90;58.70;;;;;;20728;6839;117686;-69
2023/08/06 08:50:52;;;;;;;0.33;0.17;;;18.80;58.70;;;;;;20724;6835;119386;-70
2023/08/06 08:53:19;;;;;;;0.07;0.07;;;18.80;59.20;;;;;;20748;6835;122991;-69
2023/08/06 08:55:45;;;;;;;0.40;0.20;;;19.20;57.10;;;;;;20508;6839;277893;-70
2023/08/06 08:58:10;;;;;;;1.37;0.20;;;19.10;56.90;;;;;;20744;6835;117625;-70
2023/08/06 09:00:37;;;;;;;1.00;0.10;;;19.20;57.80;;;;;;20719;6837;119838;-71
2023/08/06 09:03:03;;;;;;;0.30;0.20;;;19.20;57.80;;;;;;20524;6839;307226;-70
2023/08/06 09:05:28;;;;;;;1.17;0.30;;;19.40;56.90;;;;;;20739;6834;119765;-71
2023/08/06 09:07:53;;;;;;;0.30;0.20;;;19.50;57.20;;;;;;20523;6839;278235;-70
2023/08/06 09:10:19;;;;;;;0.20;0.20;;;19.60;56.00;;;;;;20531;6834;333578;-70
2023/08/06 09:12:45;;;;;;;0.87;0.30;;;19.90;56.30;;;;;;20697;6839;118133;-72
2023/08/06 09:15:10;;;;;;;0.45;0.10;;;19.90;56.60;;;;;;20536;6834;277533;-72
2023/08/06 09:17:37;;;;;;;0.20;0.17;;;20.20;55.20;;;;;;20521;6839;307032;-71
2023/08/06 09:20:08;;;;;;;0.83;0.20;;;20.20;55.20;;;;;;20741;6834;119759;-71
2023/08/06 09:22:35;;;;;;;0.10;0.10;;;20.10;55.70;;;;;;20702;6839;119921;-71
2023/08/06 09:24:59;;;;;;;0.60;0.60;;;19.80;56.20;;;;;;20738;6834;119506;-70
2023/08/06 09:27:25;;;;;;;0.55;0.20;;;19.60;56.90;;;;;;20523;6839;282838;-71
2023/08/06 09:29:51;;;;;;;1.70;0.20;;;20.00;56.10;;;;;;20536;6834;307678;-70
2023/08/06 09:32:17;;;;;;;0.10;0.10;;;20.00;56.10;;;;;;20735;6834;121883;-72
2023/08/06 09:34:42;;;;;;;0.20;0.10;;;20.00;56.60;;;;;;20500;6839;337033;-71
2023/08/06 09:37:08;;;;;;;0.80;0.10;;;20.10;56.30;;;;;;20507;6839;282910;-70
2023/08/06 09:39:33;;;;;;;0.60;0.10;;;20.40;55.40;;;;;;20463;6854;336754;-70
2023/08/06 09:42:00;;;;;;;0.20;0.10;;;21.00;54.40;;;;;;20529;6839;277874;-71
2023/08/06 09:44:25;;;;;;;0.93;0.20;;;21.00;54.40;;;;;;20716;6839;117579;-71
2023/08/06 09:46:52;;;;;;;0.47;0.30;;;20.50;55.00;;;;;;20696;6835;185888;-72
2023/08/06 09:49:34;;;;;;;0.45;0.20;;;20.50;54.90;;;;;;20499;6835;306959;-70
2023/08/06 09:51:59;;;;;;;0.10;0.10;;;20.40;53.80;;;;;;20492;6839;315737;-70
2023/08/06 09:54:26;;;;;;;0.20;0.10;;;20.60;53.90;;;;;;20524;6835;335126;-71
2023/08/06 09:56:50;;;;;;;0.17;0.10;;;20.60;53.50;;;;;;20694;6839;121062;-71
2023/08/06 09:59:16;;;;;;;0.00;0.00;;;20.30;54.20;;;;;;20727;6839;119483;-70
2023/08/06 10:01:42;;;;;;;0.90;0.20;;;19.90;55.30;;;;;;20736;6835;123380;-71
2023/08/06 10:04:11;;;;;;;0.20;0.10;;;19.60;56.20;;;;;;20519;6839;293910;-70
2023/08/06 10:06:33;;;;;;;0.70;0.10;;;19.70;56.00;;;;;;20668;6839;119856;-70
2023/08/06 10:08:59;;;;;;;0.70;0.10;;;19.60;56.20;;;;;;20426;6854;304431;-71
2023/08/06 10:11:25;;;;;;;1.20;0.27;;;19.70;56.30;;;;;;20501;6838;313483;-71
2023/08/06 10:13:49;;;;;;;0.20;0.20;;;19.80;55.70;;;;;;20497;6839;307528;-71
2023/08/06 10:16:16;;;;;;;0.20;0.20;;;19.60;55.80;;;;;;20730;6834;120080;-69
2023/08/06 10:18:41;;;;;;;0.97;0.30;;;19.60;55.80;;;;;;20708;6839;122850;-71
2023/08/06 10:21:07;;;;;;;0.20;0.20;;;19.20;56.60;;;;;;20527;6839;300038;-71
2023/08/06 10:23:32;;;;;;;1.35;0.10;;;19.20;57.00;;;;;;20692;6854;119426;-69
2023/08/06 10:25:59;;;;;;;0.40;0.23;;;19.10;57.30;;;;;;20517;6839;279788;-70
2023/08/06 10:28:24;;;;;;;0.50;0.10;;;19.10;57.50;;;;;;20509;6839;310814;-69
2023/08/06 10:30:51;;;;;;;0.67;0.10;;;19.40;57.80;;;;;;20652;6839;118245;-70
2023/08/06 10:33:16;;;;;;;0.20;0.10;;;19.40;57.80;;;;;;20711;6839;119829;-70
2023/08/06 10:35:43;;;;;;;0.63;0.30;;;19.20;58.40;;;;;;20715;6834;117134;-69
2023/08/06 10:38:07;;;;;;;0.40;0.20;;;19.10;58.90;;;;;;20489;6839;312139;-70
2023/08/06 10:40:32;;;;;;;0.05;0.05;;;19.30;58.50;;;;;;20662;6854;117699;-72
2023/08/06 10:43:01;;;;;;;0.10;0.10;;;19.30;58.60;;;;;;20719;6839;120549;-70
2023/08/06 10:45:28;;;;;;;0.20;0.20;;;19.20;58.60;;;;;;20723;6839;122584;-69
2023/08/06 10:47:52;;;;;;;0.33;0.10;;;19.00;58.80;;;;;;20742;6834;117110;-70
2023/08/06 10:50:18;;;;;;;0.40;0.20;;;18.90;58.90;;;;;;20513;6839;278663;-70
2023/08/06 10:52:43;;;;;;;0.63;0.20;;;19.00;58.40;;;;;;20510;6835;277373;-71
2023/08/06 10:55:09;;;;;;;0.20;0.10;;;19.30;57.60;;;;;;20696;6835;117806;-70
2023/08/06 10:57:34;;;;;;;0.43;0.20;;;19.20;57.70;;;;;;20528;6835;311763;-71
2023/08/06 11:00:00;;;;;;;0.50;0.20;;;19.20;57.50;;;;;;20738;6835;120233;-70
2023/08/06 11:02:25;;;;;;;0.22;0.10;;;19.20;58.00;;;;;;20737;6835;117023;-70
2023/08/06 11:04:52;;;;;;;2.13;0.20;;;18.80;59.40;;;;;;20726;6835;129725;-70
2023/08/06 11:07:17;;;;;;;0.13;0.13;;;18.80;59.40;;;;;;20682;6854;121539;-71
2023/08/06 11:09:43;;;;;;;0.40;0.30;;;18.70;60.20;;;;;;20522;6839;307015;-70
2023/08/06 11:12:12;;;;;;;0.32;0.28;;;19.00;59.40;;;;;;20531;6839;288108;-69
2023/08/06 11:14:38;;;;;;;0.43;0.28;;;19.40;58.70;;;;;;20499;6835;306543;-70
2023/08/06 11:17:03;;;;;;;0.73;0.30;;;19.80;58.20;;;;;;20728;6839;117274;-69
2023/08/06 11:19:28;;;;;;;0.87;0.30;;;19.70;58.90;;;;;;20470;6854;279400;-71
2023/08/06 11:21:54;;;;;;;0.20;0.20;;;19.70;57.90;;;;;;20684;6854;117229;-71
2023/08/06 11:24:20;;;;;;;0.20;0.20;;;19.40;58.90;;;;;;20724;6837;120686;-70
2023/08/06 11:26:46;;;;;;;1.67;0.37;;;19.40;58.90;;;;;;20498;6839;306723;-70
2023/08/06 11:29:11;;;;;;;0.20;0.20;;;19.60;58.80;;;;;;20519;6839;336954;-71
2023/08/06 11:31:37;;;;;;;0.73;0.27;;;19.90;58.10;;;;;;20727;6839;120111;-71
2023/08/06 11:34:03;;;;;;;0.50;0.20;;;19.90;58.10;;;;;;20747;6834;117975;-71
2023/08/06 11:36:31;;;;;;;0.28;0.20;;;19.80;58.90;;;;;;20520;6834;303170;-71
2023/08/06 11:38:57;;;;;;;0.30;0.30;;;20.00;58.50;;;;;;20495;6839;340923;-69
2023/08/06 11:41:22;;;;;;;0.27;0.27;;;20.30;57.30;;;;;;20535;6834;276669;-71
2023/08/06 11:43:49;;;;;;;0.20;0.20;;;20.40;57.00;;;;;;20725;6839;117254;-70
2023/08/06 11:46:14;;;;;;;1.93;0.70;;;20.40;57.00;;;;;;20685;6854;117340;-70
2023/08/06 11:48:50;;;;;;;0.13;0.10;;;20.20;57.70;;;;;;20691;6839;118397;-69
2023/08/06 11:51:17;;;;;;;0.13;0.13;;;20.00;58.30;;;;;;20445;6839;282469;-71
2023/08/06 11:53:42;;;;;;;0.10;0.10;;;20.20;56.90;;;;;;20733;6839;117077;-69
2023/08/06 11:56:08;;;;;;;0.10;0.10;;;20.00;57.20;;;;;;20736;6834;117068;-70
2023/08/06 11:58:34;;;;;;;1.80;0.20;;;20.00;57.20;;;;;;20720;6839;119809;-70
2023/08/06 12:01:00;;;;;;;0.13;0.13;;;19.80;57.60;;;;;;20730;6839;119914;-70
2023/08/06 12:03:28;;;;;;;0.77;0.10;;;19.90;56.60;;;;;;20518;6839;307899;-70
2023/08/06 12:05:51;;;;;;;0.20;0.20;;;19.90;56.60;;;;;;20729;6837;117075;-69
2023/08/06 12:08:17;;;;;;;0.90;0.20;;;20.00;56.80;;;;;;20505;6839;336549;-69
2023/08/06 12:10:43;;;;;;;0.75;0.35;;;20.20;56.50;;;;;;20461;6854;278975;-70
2023/08/06 12:13:08;;;;;;;0.10;0.10;;;20.50;55.30;;;;;;20512;6839;341392;-70
2023/08/06 12:15:34;;;;;;;0.50;0.40;;;20.70;55.00;;;;;;20516;6839;294265;-69
2023/08/06 12:17:59;;;;;;;0.10;0.10;;;21.00;53.90;;;;;;20751;6835;118654;-69
2023/08/06 12:20:26;;;;;;;0.30;0.30;;;20.70;54.30;;;;;;20512;6839;307330;-69
2023/08/06 12:22:51;;;;;;;0.97;0.20;;;20.70;54.30;;;;;;20670;6854;120125;-70
2023/08/06 12:25:17;;;;;;;0.27;0.27;;;20.50;54.70;;;;;;20734;6839;120325;-69
2023/08/06 12:27:42;;;;;;;1.33;0.33;;;20.10;55.10;;;;;;20736;6839;117363;-70